createdAt,value
2023-05-20T00:02:05.157Z,15.13
2023-05-20T00:05:08.169Z,15.15
2023-05-20T00:08:11.252Z,15.11
2023-05-20T00:11:13.640Z,15.16
2023-05-20T00:14:16.038Z,15.06
2023-05-20T00:17:18.494Z,14.93
2023-05-20T00:20:21.028Z,15.06
2023-05-20T00:23:23.414Z,15.05
2023-05-20T00:26:26.728Z,14.97
2023-05-20T00:29:31.315Z,14.89
2023-05-20T00:32:34.263Z,14.99
2023-05-20T00:35:36.869Z,15.01
2023-05-20T00:38:39.306Z,14.87
2023-05-20T00:41:41.866Z,14.71
2023-05-20T00:44:44.368Z,14.73
2023-05-20T00:47:46.874Z,14.69
2023-05-20T00:50:50.002Z,14.73
2023-05-20T00:53:52.713Z,14.65
2023-05-20T00:56:56.439Z,14.67
2023-05-20T00:59:58.980Z,14.70
2023-05-20T01:03:01.533Z,14.64
2023-05-20T01:06:04.109Z,14.49
2023-05-20T01:09:06.890Z,14.56
2023-05-20T01:12:13.663Z,14.49
2023-05-20T01:15:16.620Z,14.53
2023-05-20T01:18:18.995Z,14.42
2023-05-20T01:21:22.247Z,14.38
2023-05-20T01:24:24.949Z,14.40
2023-05-20T01:27:30.412Z,14.40
2023-05-20T01:30:35.691Z,14.46
2023-05-20T01:33:38.115Z,14.46
2023-05-20T01:36:40.560Z,14.41
2023-05-20T01:39:43.006Z,14.47
2023-05-20T01:42:46.137Z,14.54
2023-05-20T01:45:48.938Z,14.53
2023-05-20T01:48:51.442Z,14.49
2023-05-20T01:51:53.862Z,14.49
2023-05-20T01:54:56.304Z,14.60
2023-05-20T01:57:58.776Z,14.60
2023-05-20T02:01:01.759Z,14.49
2023-05-20T02:04:04.307Z,14.45
2023-05-20T02:07:06.771Z,14.59
2023-05-20T02:10:09.580Z,14.69
2023-05-20T02:13:12.385Z,14.64
2023-05-20T02:16:15.621Z,14.55
2023-05-20T02:19:23.960Z,14.45
2023-05-20T02:22:26.661Z,14.64
2023-05-20T02:25:29.070Z,14.64
2023-05-20T02:28:31.468Z,14.57
2023-05-20T02:31:33.853Z,14.40
2023-05-20T02:34:38.796Z,14.28
2023-05-20T02:37:41.283Z,14.32
2023-05-20T02:40:45.425Z,14.26
2023-05-20T02:43:47.894Z,14.25
2023-05-20T02:46:50.314Z,14.36
2023-05-20T02:49:52.960Z,14.44
2023-05-20T02:52:55.959Z,14.45
2023-05-20T02:55:58.339Z,14.45
2023-05-20T02:59:00.768Z,14.36
2023-05-20T03:02:03.334Z,14.43
2023-05-20T03:05:06.147Z,14.38
2023-05-20T03:08:12.360Z,14.27
2023-05-20T03:11:14.781Z,14.05
2023-05-20T03:14:17.329Z,14.18
2023-05-20T03:17:19.875Z,14.20
2023-05-20T03:20:22.281Z,14.21
2023-05-20T03:23:24.748Z,14.15
2023-05-20T03:26:28.192Z,14.13
2023-05-20T03:29:31.469Z,14.13
2023-05-20T03:32:34.186Z,14.22
2023-05-20T03:35:36.867Z,14.21
2023-05-20T03:38:39.989Z,14.28
2023-05-20T03:41:42.501Z,14.21
2023-05-20T03:44:45.723Z,14.18
2023-05-20T03:47:49.023Z,14.23
2023-05-20T03:50:53.205Z,14.30
2023-05-20T03:53:55.917Z,14.36
2023-05-20T03:56:58.413Z,14.31
2023-05-20T04:00:02.346Z,14.47
2023-05-20T04:03:07.783Z,14.42
2023-05-20T04:06:11.301Z,14.39
2023-05-20T04:09:13.795Z,14.55
2023-05-20T04:12:16.229Z,14.52
2023-05-20T04:15:19.620Z,14.60
2023-05-20T04:18:30.002Z,14.50
2023-05-20T04:21:32.566Z,14.58
2023-05-20T04:24:35.057Z,14.52
2023-05-20T04:27:40.397Z,14.69
2023-05-20T04:30:45.437Z,14.81
2023-05-20T04:33:48.729Z,14.93
2023-05-20T04:36:52.451Z,15.00
2023-05-20T04:39:54.993Z,15.05
2023-05-20T04:42:58.615Z,15.19
2023-05-20T04:46:06.248Z,15.33
2023-05-20T04:49:09.392Z,15.45
2023-05-20T04:52:11.814Z,15.56
2023-05-20T04:55:16.034Z,15.64
2023-05-20T04:58:18.597Z,15.66
2023-05-20T05:01:21.200Z,15.69
2023-05-20T05:04:23.765Z,15.78
2023-05-20T05:07:26.259Z,15.90
2023-05-20T05:10:28.745Z,15.97
2023-05-20T05:13:31.407Z,16.06
2023-05-20T05:16:34.019Z,16.12
2023-05-20T05:19:36.518Z,16.23
2023-05-20T05:22:41.370Z,16.29
2023-05-20T05:25:43.833Z,16.44
2023-05-20T05:28:46.230Z,16.45
2023-05-20T05:31:49.073Z,16.45
2023-05-20T05:34:52.111Z,16.63
2023-05-20T05:37:55.061Z,16.63
2023-05-20T05:40:57.710Z,16.79
2023-05-20T05:44:00.530Z,16.83
2023-05-20T05:47:04.057Z,16.86
2023-05-20T05:50:07.322Z,16.86
2023-05-20T05:53:10.796Z,16.93
2023-05-20T05:56:15.498Z,16.96
2023-05-20T05:59:19.238Z,17.01
2023-05-20T06:02:22.632Z,17.08
2023-05-20T06:05:27.489Z,17.22
2023-05-20T06:08:31.385Z,17.35
2023-05-20T06:11:34.405Z,17.42
2023-05-20T06:14:36.813Z,17.51
2023-05-20T06:17:40.300Z,17.57
2023-05-20T06:20:43.713Z,17.69
2023-05-20T06:23:46.666Z,17.87
2023-05-20T06:26:50.647Z,17.96
2023-05-20T06:29:53.105Z,18.03
2023-05-20T06:32:55.578Z,18.08
2023-05-20T06:35:58.496Z,18.21
2023-05-20T06:39:01.221Z,18.25
2023-05-20T06:42:03.868Z,18.33
2023-05-20T06:45:11.665Z,18.40
2023-05-20T06:48:19.393Z,18.61
2023-05-20T06:51:22.176Z,18.63
2023-05-20T06:54:25.693Z,18.78
2023-05-20T06:57:28.108Z,18.98
2023-05-20T07:00:31.198Z,19.14
2023-05-20T07:03:33.689Z,19.28
2023-05-20T07:06:36.346Z,19.30
2023-05-20T07:09:38.752Z,19.37
2023-05-20T07:12:42.873Z,19.45
2023-05-20T07:15:48.382Z,19.56
2023-05-20T07:18:51.899Z,19.67
2023-05-20T07:21:54.410Z,19.71
2023-05-20T07:25:11.807Z,19.89
2023-05-20T07:28:16.147Z,19.98
2023-05-20T07:31:20.101Z,20.13
2023-05-20T07:34:23.762Z,20.27
2023-05-20T07:37:27.072Z,20.37
2023-05-20T07:40:29.900Z,20.43
2023-05-20T07:43:32.269Z,20.49
2023-05-20T07:46:35.178Z,20.52
2023-05-20T07:49:39.208Z,20.72
2023-05-20T07:52:55.440Z,20.85
2023-05-20T07:56:00.981Z,20.95
2023-05-20T07:59:05.010Z,21.09
2023-05-20T08:02:13.579Z,21.24
2023-05-20T08:05:16.980Z,21.28
2023-05-20T08:08:20.461Z,21.43
2023-05-20T08:11:29.082Z,21.55
2023-05-20T08:14:32.125Z,21.65
2023-05-20T08:17:35.410Z,21.77
2023-05-20T08:20:38.766Z,21.92
2023-05-20T08:23:41.452Z,22.07
2023-05-20T08:26:43.869Z,22.16
2023-05-20T08:29:46.447Z,22.31
2023-05-20T08:32:49.106Z,22.43
2023-05-20T08:35:51.610Z,22.55
2023-05-20T08:38:53.999Z,22.70
2023-05-20T08:41:56.432Z,22.86
2023-05-20T08:44:58.930Z,22.98
2023-05-20T08:48:03.199Z,23.10
2023-05-20T08:51:06.366Z,23.21
2023-05-20T08:54:09.049Z,23.18
2023-05-20T08:57:14.099Z,23.34
2023-05-20T09:00:17.248Z,23.44
2023-05-20T09:03:21.028Z,23.60
2023-05-20T09:06:24.220Z,23.70
2023-05-20T09:09:26.614Z,23.92
2023-05-20T09:12:28.986Z,24.15
2023-05-20T09:15:32.843Z,24.24
2023-05-20T09:18:39.177Z,24.38
2023-05-20T09:21:41.697Z,24.35
2023-05-20T09:24:44.118Z,24.47
2023-05-20T09:27:46.730Z,24.47
2023-05-20T09:30:50.474Z,24.58
2023-05-20T09:33:52.872Z,24.75
2023-05-20T09:36:55.270Z,24.87
2023-05-20T09:40:07.293Z,24.91
2023-05-20T09:43:11.550Z,24.99
2023-05-20T09:46:14.237Z,25.13
2023-05-20T09:49:16.729Z,25.07
2023-05-20T09:52:21.346Z,25.25
2023-05-20T09:55:24.799Z,25.45
2023-05-20T09:58:27.249Z,25.68
2023-05-20T10:01:29.662Z,25.75
2023-05-20T10:04:32.534Z,25.88
2023-05-20T10:07:49.802Z,25.80
2023-05-20T10:11:25.948Z,26.03
2023-05-20T10:14:31.325Z,25.94
2023-05-20T10:18:03.491Z,26.17
2023-05-20T10:21:15.607Z,26.30
2023-05-20T10:24:17.965Z,26.42
2023-05-20T10:27:20.372Z,26.68
2023-05-20T10:30:22.761Z,26.85
2023-05-20T10:33:28.773Z,26.35
2023-05-20T10:36:32.295Z,26.48
2023-05-20T10:39:34.779Z,26.89
2023-05-20T10:42:37.197Z,27.05
2023-05-20T10:45:49.978Z,26.38
2023-05-20T10:48:52.479Z,26.76
2023-05-20T10:51:55.696Z,26.89
2023-05-20T10:54:58.867Z,27.32
2023-05-20T10:58:01.229Z,27.53
2023-05-20T11:01:03.681Z,27.64
2023-05-20T11:04:06.623Z,27.73
2023-05-20T11:07:09.182Z,27.65
2023-05-20T11:10:11.952Z,27.19
2023-05-20T11:13:17.118Z,27.74
2023-05-20T11:16:21.296Z,27.93
2023-05-20T11:19:23.869Z,28.23
2023-05-20T11:22:26.376Z,28.35
2023-05-20T11:25:28.816Z,28.32
2023-05-20T11:28:33.266Z,28.25
2023-05-20T11:31:38.154Z,27.88
2023-05-20T11:34:40.781Z,28.46
2023-05-20T11:37:43.262Z,28.48
2023-05-20T11:40:51.242Z,28.70
2023-05-20T11:44:00.475Z,28.83
2023-05-20T11:47:03.721Z,29.04
2023-05-20T11:50:07.617Z,28.78
2023-05-20T11:53:11.642Z,29.13
2023-05-20T11:56:14.137Z,29.09
2023-05-20T11:59:16.578Z,28.94
2023-05-20T12:02:19.092Z,29.18
2023-05-20T12:05:21.686Z,29.38
2023-05-20T12:08:24.163Z,29.59
2023-05-20T12:11:26.517Z,29.81
2023-05-20T12:14:28.917Z,29.86
2023-05-20T12:17:34.865Z,29.85
2023-05-20T12:20:37.759Z,29.98
2023-05-20T12:23:40.422Z,29.96
2023-05-20T12:26:42.840Z,30.10
2023-05-20T12:29:45.210Z,30.29
2023-05-20T12:32:50.081Z,30.40
2023-05-20T12:35:52.485Z,30.42
2023-05-20T12:38:54.899Z,30.71
2023-05-20T12:41:57.353Z,30.22
2023-05-20T12:44:59.757Z,30.32
2023-05-20T12:48:02.232Z,29.95
2023-05-20T12:51:04.898Z,29.55
2023-05-20T12:54:07.312Z,29.20
2023-05-20T12:57:09.776Z,29.87
2023-05-20T13:00:12.790Z,29.87
2023-05-20T13:03:15.394Z,30.16
2023-05-20T13:06:17.857Z,30.32
2023-05-20T13:09:20.219Z,29.74
2023-05-20T13:12:22.593Z,29.58
2023-05-20T13:15:24.969Z,29.78
2023-05-20T13:18:27.330Z,29.43
2023-05-20T13:21:29.708Z,28.94
2023-05-20T13:24:32.089Z,29.32
2023-05-20T13:27:34.480Z,29.09
2023-05-20T13:30:37.085Z,29.17
2023-05-20T13:33:39.750Z,29.15
2023-05-20T13:36:42.247Z,29.16
2023-05-20T13:39:44.657Z,29.16
2023-05-20T13:42:47.059Z,29.38
2023-05-20T13:45:49.430Z,28.81
2023-05-20T13:48:51.807Z,28.73
2023-05-20T13:51:54.185Z,28.72
2023-05-20T13:54:56.560Z,28.87
2023-05-20T13:57:58.924Z,29.08
2023-05-20T14:01:01.318Z,29.24
2023-05-20T14:04:03.708Z,29.18
2023-05-20T14:07:07.734Z,29.15
2023-05-20T14:10:11.621Z,29.10
2023-05-20T14:13:14.053Z,29.32
2023-05-20T14:16:16.445Z,29.03
2023-05-20T14:19:18.911Z,29.10
2023-05-20T14:22:21.317Z,28.92
2023-05-20T14:25:23.710Z,28.85
2023-05-20T14:28:26.257Z,28.81
2023-05-20T14:31:28.679Z,28.94
2023-05-20T14:34:31.075Z,28.80
2023-05-20T14:37:33.467Z,28.85
2023-05-20T14:40:36.248Z,29.02
2023-05-20T14:43:39.044Z,28.68
2023-05-20T14:46:41.496Z,28.76
2023-05-20T14:49:44.679Z,28.76
2023-05-20T14:52:47.019Z,28.58
2023-05-20T14:55:49.416Z,28.59
2023-05-20T14:58:51.808Z,28.44
2023-05-20T15:01:54.326Z,28.06
2023-05-20T15:04:56.759Z,28.11
2023-05-20T15:07:59.167Z,28.22
2023-05-20T15:11:01.566Z,28.23
2023-05-20T15:14:03.970Z,28.15
2023-05-20T15:17:06.587Z,28.00
2023-05-20T15:20:10.007Z,27.80
2023-05-20T15:23:12.453Z,27.86
2023-05-20T15:26:14.795Z,27.84
2023-05-20T15:29:17.254Z,27.88
2023-05-20T15:32:20.125Z,27.73
2023-05-20T15:35:22.686Z,27.75
2023-05-20T15:38:25.145Z,27.69
2023-05-20T15:41:27.586Z,27.66
2023-05-20T15:44:30.085Z,27.65
2023-05-20T15:47:32.477Z,27.54
2023-05-20T15:50:36.309Z,27.41
2023-05-20T15:53:40.669Z,27.42
2023-05-20T15:56:43.213Z,27.39
2023-05-20T15:59:45.590Z,27.21
2023-05-20T16:02:48.144Z,27.21
2023-05-20T16:05:50.784Z,26.94
2023-05-20T16:08:53.201Z,26.76
2023-05-20T16:11:56.307Z,26.56
2023-05-20T16:14:58.676Z,26.53
2023-05-20T16:18:01.258Z,26.44
2023-05-20T16:21:07.335Z,26.18
2023-05-20T16:24:09.700Z,26.19
2023-05-20T16:27:12.189Z,26.07
2023-05-20T16:30:14.576Z,25.88
2023-05-20T16:33:17.577Z,25.85
2023-05-20T16:36:19.993Z,25.82
2023-05-20T16:39:22.444Z,25.79
2023-05-20T16:42:24.794Z,25.80
2023-05-20T16:45:27.276Z,25.73
2023-05-20T16:48:29.679Z,25.73
2023-05-20T16:51:32.225Z,25.71
2023-05-20T16:54:37.303Z,25.56
2023-05-20T16:57:39.715Z,25.54
2023-05-20T17:00:42.116Z,25.44
2023-05-20T17:03:44.544Z,25.33
2023-05-20T17:06:49.857Z,25.27
2023-05-20T17:09:52.217Z,25.24
2023-05-20T17:12:54.719Z,25.10
2023-05-20T17:15:57.101Z,25.03
2023-05-20T17:18:59.567Z,24.94
2023-05-20T17:22:02.113Z,24.88
2023-05-20T17:25:04.904Z,24.73
2023-05-20T17:28:07.281Z,24.67
2023-05-20T17:31:09.910Z,24.50
2023-05-20T17:34:12.497Z,24.39
2023-05-20T17:37:15.147Z,24.09
2023-05-20T17:40:17.604Z,23.94
2023-05-20T17:43:20.950Z,23.75
2023-05-20T17:46:23.441Z,23.64
2023-05-20T17:49:25.937Z,23.48
2023-05-20T17:52:28.642Z,23.48
2023-05-20T17:55:32.608Z,23.40
2023-05-20T17:58:34.985Z,23.12
2023-05-20T18:01:37.533Z,23.04
2023-05-20T18:04:40.038Z,22.95
2023-05-20T18:07:43.028Z,22.70
2023-05-20T18:10:45.539Z,22.65
2023-05-20T18:13:47.981Z,22.44
2023-05-20T18:16:50.348Z,22.22
2023-05-20T18:19:52.737Z,22.12
2023-05-20T18:22:58.531Z,22.10
2023-05-20T18:26:01.111Z,22.29
2023-05-20T18:29:03.572Z,22.33
2023-05-20T18:32:06.654Z,22.54
2023-05-20T18:35:09.289Z,22.68
2023-05-20T18:38:11.717Z,22.69
2023-05-20T18:41:14.123Z,22.63
2023-05-20T18:44:16.920Z,22.58
2023-05-20T18:47:19.352Z,22.52
2023-05-20T18:50:21.758Z,22.49
2023-05-20T18:53:24.194Z,22.48
2023-05-20T18:56:27.325Z,22.41
2023-05-20T18:59:29.702Z,22.27
2023-05-20T19:02:32.123Z,22.29
2023-05-20T19:05:34.873Z,22.33
2023-05-20T19:08:37.573Z,22.35
2023-05-20T19:11:40.028Z,22.33
2023-05-20T19:14:42.430Z,22.31
2023-05-20T19:17:44.818Z,22.34
2023-05-20T19:20:47.204Z,22.10
2023-05-20T19:23:49.930Z,21.74
2023-05-20T19:26:52.337Z,21.73
2023-05-20T19:29:54.718Z,21.56
2023-05-20T19:32:57.140Z,21.33
2023-05-20T19:35:59.587Z,21.03
2023-05-20T19:39:01.961Z,21.04
2023-05-20T19:42:04.553Z,21.05
2023-05-20T19:45:07.515Z,20.91
2023-05-20T19:48:10.009Z,20.88
2023-05-20T19:51:12.435Z,20.74
2023-05-20T19:54:14.877Z,20.80
2023-05-20T19:57:17.259Z,20.83
2023-05-20T20:00:20.950Z,20.87
2023-05-20T20:03:23.238Z,20.78
2023-05-20T20:06:25.622Z,20.58
2023-05-20T20:09:28.100Z,20.55
2023-05-20T20:12:30.537Z,20.47
2023-05-20T20:15:33.123Z,20.52
2023-05-20T20:18:35.687Z,20.43
2023-05-20T20:21:40.265Z,20.43
2023-05-20T20:24:42.634Z,20.42
2023-05-20T20:27:45.040Z,20.34
2023-05-20T20:30:47.444Z,20.33
2023-05-20T20:33:50.711Z,20.44
2023-05-20T20:36:54.159Z,20.38
2023-05-20T20:39:56.707Z,20.33
2023-05-20T20:42:59.106Z,20.36
2023-05-20T20:46:01.516Z,20.36
2023-05-20T20:49:03.875Z,20.32
2023-05-20T20:52:06.738Z,20.12
2023-05-20T20:55:10.264Z,20.11
2023-05-20T20:58:13.578Z,20.17
2023-05-20T21:01:17.574Z,20.05
2023-05-20T21:04:20.971Z,19.94
2023-05-20T21:07:25.598Z,19.77
2023-05-20T21:10:29.308Z,19.66
2023-05-20T21:13:31.798Z,19.72
2023-05-20T21:16:34.217Z,19.68
2023-05-20T21:19:36.677Z,19.69
2023-05-20T21:22:39.304Z,19.60
2023-05-20T21:25:41.833Z,19.47
2023-05-20T21:28:44.178Z,19.33
2023-05-20T21:31:46.569Z,19.36
2023-05-20T21:34:48.934Z,19.39
2023-05-20T21:37:51.926Z,19.40
2023-05-20T21:40:54.335Z,19.36
2023-05-20T21:43:56.731Z,19.41
2023-05-20T21:46:59.250Z,19.43
2023-05-20T21:50:02.065Z,19.41
2023-05-20T21:53:04.443Z,19.39
2023-05-20T21:56:06.926Z,19.33
2023-05-20T21:59:09.357Z,19.36
2023-05-20T22:02:11.769Z,19.34
2023-05-20T22:05:14.163Z,19.34
2023-05-20T22:08:17.082Z,19.25
2023-05-20T22:11:19.927Z,19.26
2023-05-20T22:14:22.376Z,19.26
2023-05-20T22:17:25.009Z,19.20
2023-05-20T22:20:28.775Z,19.26
2023-05-20T22:23:31.137Z,19.15
2023-05-20T22:26:34.571Z,19.02
2023-05-20T22:29:37.082Z,18.98
2023-05-20T22:32:40.431Z,18.83
2023-05-20T22:35:42.835Z,18.80
2023-05-20T22:38:45.221Z,18.63
2023-05-20T22:41:47.587Z,18.43
2023-05-20T22:44:50.158Z,18.45
2023-05-20T22:47:53.113Z,18.55
2023-05-20T22:50:56.183Z,18.52
2023-05-20T22:53:58.583Z,18.46
2023-05-20T22:57:01.013Z,18.47
2023-05-20T23:00:04.995Z,18.44
2023-05-20T23:03:07.437Z,18.34
2023-05-20T23:06:09.918Z,18.21
2023-05-20T23:09:12.756Z,18.08
2023-05-20T23:12:15.686Z,18.03
2023-05-20T23:15:18.234Z,18.05
2023-05-20T23:18:20.743Z,18.08
2023-05-20T23:21:23.259Z,18.11
2023-05-20T23:24:25.633Z,18.09
2023-05-20T23:27:28.020Z,18.09
2023-05-20T23:30:30.498Z,17.98
2023-05-20T23:33:33.014Z,18.08
2023-05-20T23:36:35.509Z,18.11
2023-05-20T23:39:38.016Z,18.10
2023-05-20T23:42:40.429Z,18.02
2023-05-20T23:45:42.862Z,17.94
2023-05-20T23:48:45.907Z,17.83
2023-05-20T23:51:48.295Z,17.84
2023-05-20T23:54:51.682Z,17.72
2023-05-20T23:57:54.621Z,17.73
